Ana Sayfa
METAR-TAF:

METAR-TAF

Havaalanları :

Riyad, Suudi Arabistan

Enlem: 24-43N, Boylam: 046-44E, yükseklik: 635 m

METAR: eksik

Saat: 03:15 (00:15 UTC)

Tahmin

Rapor saat 23:00 UTC de 1 saat ve 15 dakika önce yapıldı.
Ayın 17'si saat 00 UTC'den ayın 18'si saat 06 UTC'ye kadar geçerli Tahmin
Rüzgar kuzeydan 6 kt ve 16 kt'a kadar ani rüzgarlar
Görüş mesafesi: 7000 m
4000 ft yükseklikte parçalı bulutlu
10000 ft yükseklikte parçalı bulutlu

TAF: OERY 162300Z 1700/1806 01006G16KT 7000 SCT040 SCT100

4.000'den fazla havaalanı için hava durumu gözlemleri ve tahminleri (METAR ve TAF raporları).

Kullanılabilir istasyonlar harita üzerinde sarı ve kırmızı noktalarla gösterilir.

İstasyonun adını görmek için fareyi noktanın üzerinde gezdirin.

Sonrasında hava gözlem ve tahminlerini görmek için tıklayın.

Haritayı değiştirmek için: yaklaştırmak için siyah artı işaretli yeşil düğmeye ve uzaklaştırmak için de eksi işaretli düğmeye hızla tıklayın; bitişik haritalar için yeşil okları kullanın.


METAR-TAF: